Time;durP1;ratioP1;P1;durP2;ratioP2;P2;SDS_P1;SDS_P2;PMS_P1;PMS_P2;Temp;Humidity;BMP_temperature;BMP_pressure;BME280_temperature;BME280_humidity;BME280_pressure;Samples;Min_cycle;Max_cycle;Signal;HPM_P1;HPM_P2
2022/09/18 00:00:58;;;;;;;30.02;22.82;;;;;;;20.31;100.00;10195.27;1781903;79;20990;-67
2022/09/18 00:03:24;;;;;;;27.58;23.67;;;;;;;20.31;100.00;8838.43;1768540;79;21073;-66
2022/09/18 00:05:51;;;;;;;29.92;23.83;;;;;;;20.28;100.00;8159.50;1737498;81;21435;-60
2022/09/18 00:08:18;;;;;;;32.35;23.30;;;;;;;20.28;100.00;7142.51;1778000;79;21046;-67
2022/09/18 00:10:49;;;;;;;28.98;22.80;;;;;;;20.27;100.00;5956.33;1768440;79;21547;-66
2022/09/18 00:13:14;;;;;;;27.25;22.25;;;;;;;20.29;100.00;4940.34;1780525;80;21299;-67
2022/09/18 00:15:42;;;;;;;34.92;24.30;;;;;;;20.29;100.00;4262.96;1770879;80;21476;-66
2022/09/18 00:18:09;;;;;;;35.65;22.32;;;;;;;20.30;100.00;3585.85;1741074;79;21278;-66
2022/09/18 00:20:36;;;;;;;25.35;20.65;;;;;;;20.31;100.00;3078.13;1779320;80;21120;-66
2022/09/18 00:23:03;;;;;;;30.00;22.02;;;;;;;20.31;100.00;2739.60;1786723;80;20901;-58
2022/09/18 00:25:31;;;;;;;28.87;22.52;;;;;;;20.33;100.00;2062.82;1782579;80;21021;-65
2022/09/18 00:27:57;;;;;;;26.57;21.05;;;;;;;20.38;100.00;1724.90;1769795;80;21545;-66
2022/09/18 00:30:25;;;;;;;26.73;21.50;;;;;;;20.41;100.00;1048.32;1771776;80;21231;-58
2022/09/18 00:32:51;;;;;;;25.20;19.55;;;;;;;20.43;100.00;879.31;1770829;79;21067;-66
2022/09/18 00:35:19;;;;;;;29.50;21.25;;;;;;;20.46;100.00;372.03;1772744;79;21075;-59
2022/09/18 00:37:45;;;;;;;29.60;21.52;;;;;;;20.47;100.00;33.78;1772049;79;21740;-59
2022/09/18 00:40:12;;;;;;;32.05;19.50;;;;;;;20.49;100.00;-642.64;1773591;79;22078;-66
2022/09/18 00:42:39;;;;;;;23.15;20.12;;;;;;;20.50;100.00;-1657.23;1771621;79;21114;-66
2022/09/18 00:45:09;;;;;;;27.62;21.05;;;;;;;20.50;100.00;-2333.45;1775275;79;21353;-68
2022/09/18 00:47:41;;;;;;;25.80;20.15;;;;;;;20.52;100.00;-3178.50;1776030;79;21343;-67
2022/09/18 00:50:22;;;;;;;28.65;21.12;;;;;;;20.53;100.00;-4023.41;1777192;79;21008;-59
2022/09/18 00:53:08;;;;;;;30.27;21.77;;;;;;;20.53;100.00;-5205.93;1780360;80;21014;-67
2022/09/18 00:55:34;;;;;;;26.65;20.02;;;;;;;20.53;100.00;-6050.34;1770952;80;21124;-67
2022/09/18 00:58:01;;;;;;;32.50;20.88;;;;;;;20.54;100.00;-6894.56;1779809;79;20994;-68
2022/09/18 01:00:29;;;;;;;26.42;18.90;;;;;;;20.56;100.00;-7569.86;1772329;80;21068;-67
2022/09/18 01:02:58;;;;;;;32.08;21.45;;;;;;;20.57;100.00;-7907.47;1776036;79;21046;-66
2022/09/18 01:05:44;;;;;;;24.05;19.62;;;;;;;20.59;100.00;-8076.35;1771638;80;21046;-59
2022/09/18 01:08:37;;;;;;;24.98;19.85;;;;;;;20.62;100.00;-8245.26;1711478;79;21155;-59
2022/09/18 01:11:13;;;;;;;24.87;18.17;;;;;;;20.62;100.00;-8920.27;1779455;79;21017;-58
2022/09/18 01:14:06;;;;;;;27.82;20.37;;;;;;;20.63;100.00;-9595.17;1775585;79;21481;-67
2022/09/18 01:16:42;;;;;;;31.68;20.12;;;;;;;20.63;100.00;-9932.55;1772382;80;21050;-67
2022/09/18 01:19:21;;;;;;;28.52;20.43;;;;;;;20.64;100.00;-10607.31;1752092;80;21045;-66
2022/09/18 01:22:05;;;;;;;27.42;19.70;;;;;;;20.64;100.00;-11113.28;1771864;80;21830;-67
2022/09/18 01:24:47;;;;;;;34.63;21.10;;;;;;;20.67;100.00;-10776.25;1775712;79;21042;-67
2022/09/18 01:27:58;;;;;;;27.93;18.42;;;;;;;20.69;100.00;-10439.12;1779119;79;21055;-67
2022/09/18 01:30:25;;;;;;;29.65;19.20;;;;;;;20.68;100.00;-10439.03;1748483;80;21599;-66
2022/09/18 01:32:58;;;;;;;34.18;20.12;;;;;;;20.67;100.00;-10438.94;1748540;81;21637;-65
2022/09/18 01:35:45;;;;;;;30.05;19.55;;;;;;;20.66;100.00;-10270.22;1740550;79;21698;-59
2022/09/18 01:38:32;;;;;;;26.37;19.35;;;;;;;20.64;100.00;-10101.36;1784407;79;20975;-58
2022/09/18 01:41:07;;;;;;;30.80;18.00;;;;;;;20.65;100.00;-9932.72;1740488;79;21037;-66
2022/09/18 01:43:34;;;;;;;32.13;19.60;;;;;;;20.62;100.00;-9932.51;1779916;80;21474;-68
2022/09/18 01:46:06;;;;;;;25.23;17.92;;;;;;;20.63;100.00;-10269.90;1771513;79;20987;-68
2022/09/18 01:48:56;;;;;;;31.07;19.33;;;;;;;20.63;100.00;-10438.56;1772830;80;21236;-60
2022/09/18 01:51:28;;;;;;;27.17;18.02;;;;;;;20.61;100.00;-10438.47;1773590;79;21543;-59
2022/09/18 01:54:03;;;;;;;26.50;17.48;;;;;;;20.65;100.00;-10944.70;1766222;80;21388;-59
2022/09/18 01:56:47;;;;;;;31.57;18.75;;;;;;;20.66;100.00;-10776.16;1778843;79;28236;-58
2022/09/18 01:59:24;;;;;;;27.25;18.85;;;;;;;20.64;100.00;-11113.28;1783850;79;21072;-66
2022/09/18 02:01:52;;;;;;;25.70;18.10;;;;;;;20.65;100.00;-11450.56;1766103;80;21212;-67
2022/09/18 02:04:26;;;;;;;26.17;16.87;;;;;;;20.67;100.00;-11619.39;1766550;80;21548;-66
2022/09/18 02:07:15;;;;;;;27.13;17.73;;;;;;;20.66;100.00;-11450.68;1775630;79;21023;-67
2022/09/18 02:09:42;;;;;;;24.95;18.37;;;;;;;20.64;100.00;-11281.90;1776691;79;21015;-68
2022/09/18 02:12:11;;;;;;;25.27;17.85;;;;;;;20.60;100.00;-10944.29;1778118;79;21685;-67
2022/09/18 02:14:41;;;;;;;26.85;17.05;;;;;;;20.60;100.00;-11112.91;1784303;79;21199;-68
2022/09/18 02:17:17;;;;;;;27.82;17.82;;;;;;;20.60;100.00;-11618.72;1768928;79;21532;-68
2022/09/18 02:19:55;;;;;;;24.07;16.97;;;;;;;20.61;100.00;-12124.57;1769630;80;21032;-66
2022/09/18 02:22:23;;;;;;;24.95;16.67;;;;;;;20.63;100.00;-12798.96;1782883;79;21090;-67
2022/09/18 02:24:51;;;;;;;27.13;16.02;;;;;;;20.65;100.00;-13810.24;1772734;80;21547;-67
2022/09/18 02:27:18;;;;;;;24.92;14.87;;;;;;;20.66;100.00;-14315.82;1781625;79;21354;-67
2022/09/18 02:29:45;;;;;;;26.10;15.15;;;;;;;20.68;100.00;-14989.95;1780680;79;21716;-66
2022/09/18 02:32:13;;;;;;;25.12;13.30;;;;;;;20.71;100.00;-15832.55;1768637;80;21438;-67
2022/09/18 02:34:40;;;;;;;25.72;12.37;;;;;;;20.76;100.00;-16338.65;1787580;79;21039;-67
2022/09/18 02:37:22;;;;;;;23.77;9.45;;;;;;;20.79;100.00;-16507.52;1770190;79;21054;-64
2022/09/18 02:40:10;;;;;;;19.00;8.25;;;;;;;20.78;100.00;-16170.63;1779915;79;21519;-65
2022/09/18 02:43:13;;;;;;;19.02;6.78;;;;;;;20.76;100.00;-14991.28;1772048;80;21065;-58
2022/09/18 02:46:06;;;;;;;11.55;6.10;;;;;;;20.74;100.00;-13643.06;1774366;79;21040;-59
2022/09/18 02:48:48;;;;;;;16.45;5.95;;;;;;;20.72;100.00;-11619.96;1764596;80;21039;-59
2022/09/18 02:51:36;;;;;;;10.03;4.83;;;;;;;20.70;100.00;-8414.48;1739084;79;21123;-59
2022/09/18 02:54:30;;;;;;;11.18;4.40;;;;;;;20.65;100.00;-4023.29;1776724;79;21572;-59
2022/09/18 02:57:02;;;;;;;15.95;4.15;;;;;;;20.61;100.00;1557.95;1775472;79;21064;-66
2022/09/18 02:59:34;;;;;;;10.50;4.55;;;;;;;20.57;100.00;11898.81;1770756;80;21527;-66
2022/09/18 03:02:01;;;;;;;11.38;3.58;;;;;;;20.54;100.00;21760.11;1771442;80;21002;-66
2022/09/18 03:04:30;;;;;;;8.73;3.77;;;;;;;20.51;100.00;40885.29;1771582;80;21601;-59
2022/09/18 03:07:08;;;;;;;12.90;3.33;;;;;;;20.48;100.00;60261.22;1771116;80;22411;-58
2022/09/18 03:09:39;;;;;;;7.28;2.52;;;;;;;20.46;100.00;92822.59;1753413;79;21028;-66
2022/09/18 03:12:07;;;;;;;8.18;2.35;;;;;;;20.43;100.00;126713.05;1775052;79;21010;-66
2022/09/18 03:14:36;;;;;;;9.25;2.37;;;;;;;20.41;100.00;152783.58;1772600;80;21072;-67
2022/09/18 03:17:04;;;;;;;6.00;2.15;;;;;;;20.39;100.00;152778.36;1771558;80;21485;-66
2022/09/18 03:19:32;;;;;;;4.10;2.02;;;;;;;20.38;100.00;152777.08;1779348;79;21848;-59
2022/09/18 03:22:00;;;;;;;5.37;2.30;;;;;;;20.37;100.00;152774.47;1778701;79;21073;-65
2022/09/18 03:24:29;;;;;;;5.90;2.20;;;;;;;20.35;100.00;152767.91;1773067;79;21288;-58
2022/09/18 03:26:57;;;;;;;4.08;1.90;;;;;;;20.30;100.00;152757.47;1771660;79;21076;-58
2022/09/18 03:29:25;;;;;;;5.28;2.30;;;;;;;20.27;100.00;152748.31;1771512;80;21073;-57
2022/09/18 03:31:53;;;;;;;5.15;2.15;;;;;;;20.24;100.00;152741.81;1771731;80;21562;-58
2022/09/18 03:34:21;;;;;;;8.53;2.42;;;;;;;20.25;100.00;152743.09;1776213;79;21099;-58
2022/09/18 03:36:48;;;;;;;8.45;2.30;;;;;;;20.22;100.00;152735.27;1772387;80;21018;-65
2022/09/18 03:39:17;;;;;;;5.40;2.60;;;;;;;20.21;100.00;152733.94;1771644;80;22183;-64
2022/09/18 03:41:45;;;;;;;6.25;2.85;;;;;;;20.21;100.00;152733.94;1777050;80;20921;-65
2022/09/18 03:44:12;;;;;;;4.37;2.50;;;;;;;20.21;100.00;152732.66;1772008;80;21033;-66
2022/09/18 03:46:41;;;;;;;6.90;2.52;;;;;;;20.19;100.00;152728.72;1774346;80;21088;-58
2022/09/18 03:49:08;;;;;;;8.58;2.25;;;;;;;20.19;100.00;152728.72;1774554;80;21030;-58
2022/09/18 03:51:37;;;;;;;11.40;2.22;;;;;;;20.20;100.00;152731.31;1772924;80;21073;-64
2022/09/18 03:54:05;;;;;;;7.37;2.37;;;;;;;20.22;100.00;152735.27;1768267;80;21052;-65
2022/09/18 03:56:39;;;;;;;4.92;2.30;;;;;;;20.25;100.00;152744.42;1732876;80;21154;-65
2022/09/18 03:59:08;;;;;;;11.20;2.00;;;;;;;20.27;100.00;152749.64;1780685;80;20983;-64
2022/09/18 04:01:39;;;;;;;5.15;2.17;;;;;;;20.31;100.00;152760.09;1775235;80;21052;-65
2022/09/18 04:04:17;;;;;;;4.67;1.90;;;;;;;20.36;100.00;152770.53;1752490;80;20973;-67
2022/09/18 04:07:01;;;;;;;8.93;2.70;;;;;;;20.39;100.00;152778.36;1765266;80;21492;-66
2022/09/18 04:09:39;;;;;;;7.17;2.47;;;;;;;20.42;100.00;152786.19;1767802;80;21242;-65
2022/09/18 04:12:07;;;;;;;5.47;2.10;;;;;;;20.45;100.00;152795.34;1785000;80;21455;-65
2022/09/18 04:14:33;;;;;;;3.58;1.85;;;;;;;20.51;100.00;152808.41;1779458;80;21013;-65
2022/09/18 04:17:00;;;;;;;13.03;2.70;;;;;;;20.55;100.00;152820.17;1779791;80;21025;-65
2022/09/18 04:19:27;;;;;;;5.25;2.65;;;;;;;20.62;100.00;152837.17;1782863;80;21134;-66
2022/09/18 04:21:56;;;;;;;6.30;2.10;;;;;;;20.63;100.00;152838.44;1776687;80;21786;-59
2022/09/18 04:24:23;;;;;;;7.22;2.30;;;;;;;20.63;100.00;152838.44;1774455;80;21104;-57
2022/09/18 04:26:49;;;;;;;8.65;3.00;;;;;;;20.64;100.00;152842.39;1782853;80;20981;-65
2022/09/18 04:29:17;;;;;;;5.08;2.02;;;;;;;20.71;100.00;152859.38;1771292;80;21053;-64
2022/09/18 04:31:44;;;;;;;4.30;2.20;;;;;;;20.77;100.00;152875.05;1765571;80;21057;-65
2022/09/18 04:34:12;;;;;;;13.83;2.92;;;;;;;20.86;100.00;152897.31;1769923;80;21151;-65
2022/09/18 04:36:39;;;;;;;9.63;2.50;;;;;;;20.93;100.00;152915.59;1775064;80;20997;-65
2022/09/18 04:39:06;;;;;;;6.17;1.98;;;;;;;20.98;100.00;152927.38;1770604;80;21085;-66
2022/09/18 04:41:35;;;;;;;7.42;2.08;;;;;;;21.09;100.00;152956.09;1772835;80;21101;-66
2022/09/18 04:44:03;;;;;;;6.62;1.80;;;;;;;21.15;100.00;152971.81;1771804;80;20934;-66
2022/09/18 04:46:30;;;;;;;4.30;1.50;;;;;;;21.21;100.00;152986.16;1776743;79;21194;-67
2022/09/18 04:48:57;;;;;;;4.87;1.75;;;;;;;21.29;100.00;153005.78;1775418;79;20991;-65
2022/09/18 04:51:24;;;;;;;6.45;1.75;;;;;;;21.37;100.00;153026.72;1771632;80;21093;-59
2022/09/18 04:53:51;;;;;;;6.72;2.05;;;;;;;21.46;100.00;153050.22;1771774;79;20966;-59
2022/09/18 04:56:19;;;;;;;7.97;1.52;;;;;;;21.58;100.00;153079.00;1772505;79;21058;-59
2022/09/18 04:58:48;;;;;;;6.12;1.82;;;;;;;21.71;100.00;153113.02;1771233;80;21128;-65
2022/09/18 05:01:15;;;;;;;4.35;1.40;;;;;;;21.96;100.00;153174.50;1775967;79;21054;-65
2022/09/18 05:03:42;;;;;;;6.90;1.52;;;;;;;22.32;100.00;153267.33;1772122;79;21116;-65
2022/09/18 05:06:11;;;;;;;5.85;1.60;;;;;;;22.65;98.42;153348.47;1775246;79;21105;-60
2022/09/18 05:08:38;;;;;;;3.00;1.40;;;;;;;23.08;96.34;153458.36;1773623;79;21014;-59
2022/09/18 05:11:04;;;;;;;4.75;1.80;;;;;;;23.61;93.64;153591.94;1772599;79;21238;-59
2022/09/18 05:13:34;;;;;;;6.95;1.40;;;;;;;24.19;89.36;153738.58;1771656;80;21475;-59
2022/09/18 05:16:04;;;;;;;5.72;1.75;;;;;;;24.41;85.64;153793.56;1771577;80;21454;-59
2022/09/18 05:18:31;;;;;;;3.77;1.45;;;;;;;24.40;84.43;153790.95;1772267;79;21033;-65
2022/09/18 05:21:05;;;;;;;4.42;1.60;;;;;;;24.42;82.92;153797.53;1774870;79;21036;-65
2022/09/18 05:23:33;;;;;;;3.30;1.32;;;;;;;24.38;82.63;153785.72;1776545;79;21819;-64
2022/09/18 05:26:01;;;;;;;5.03;1.57;;;;;;;24.21;82.35;153742.53;1771461;80;21064;-65
2022/09/18 05:28:28;;;;;;;7.33;1.30;;;;;;;23.99;82.74;153688.81;1771034;80;22208;-65
2022/09/18 05:30:59;;;;;;;3.75;1.47;;;;;;;23.81;83.51;153641.69;1771235;79;21030;-58
2022/09/18 05:33:28;;;;;;;3.85;1.40;;;;;;;23.70;84.43;153615.47;1783911;79;21076;-59
2022/09/18 05:35:56;;;;;;;4.35;1.32;;;;;;;23.66;84.78;153605.02;1772568;79;21129;-60
2022/09/18 05:38:24;;;;;;;3.58;1.42;;;;;;;23.65;85.00;153602.39;1775593;79;21613;-59
2022/09/18 05:40:52;;;;;;;4.87;1.30;;;;;;;23.66;84.69;153605.02;1778883;79;21001;-59
2022/09/18 05:43:19;;;;;;;6.78;1.42;;;;;;;23.66;85.08;153605.02;1777539;79;21216;-59
2022/09/18 05:45:48;;;;;;;3.77;1.17;;;;;;;23.69;85.16;153611.58;1773693;79;22396;-59
2022/09/18 05:48:22;;;;;;;3.98;1.42;;;;;;;23.70;85.41;153615.47;1787179;79;21318;-59
2022/09/18 05:50:50;;;;;;;3.67;1.10;;;;;;;23.70;85.32;153615.47;1773320;79;21727;-58
2022/09/18 05:53:19;;;;;;;7.05;1.30;;;;;;;23.64;85.20;153598.44;1776736;79;21015;-65
2022/09/18 05:55:48;;;;;;;5.22;1.27;;;;;;;23.60;85.95;153589.31;1775097;79;20927;-63
2022/09/18 05:58:17;;;;;;;4.58;1.20;;;;;;;23.65;86.23;153602.39;1772508;79;21125;-59
2022/09/18 06:00:44;;;;;;;5.67;1.30;;;;;;;23.69;86.37;153612.86;1777049;79;21712;-59
2022/09/18 06:03:14;;;;;;;5.15;1.85;;;;;;;23.67;86.19;153607.62;1777474;79;20972;-59
2022/09/18 06:05:42;;;;;;;4.15;1.22;;;;;;;23.61;86.37;153591.94;1773391;79;21443;-65
2022/09/18 06:08:11;;;;;;;5.97;1.20;;;;;;;23.58;86.45;153585.37;1770759;79;21054;-64
2022/09/18 06:10:40;;;;;;;5.97;1.00;;;;;;;23.54;86.48;153573.56;1780683;79;21074;-65
2022/09/18 06:13:14;;;;;;;3.45;1.20;;;;;;;23.58;86.76;153584.09;1776331;79;20997;-65
2022/09/18 06:15:44;;;;;;;7.70;1.32;;;;;;;23.63;86.44;153597.16;1773927;79;21058;-65
2022/09/18 06:18:13;;;;;;;4.78;1.15;;;;;;;23.58;86.07;153585.37;1771674;80;21010;-64
2022/09/18 06:20:43;;;;;;;6.55;1.47;;;;;;;23.53;86.04;153570.95;1779897;79;21054;-65
2022/09/18 06:23:10;;;;;;;4.47;1.32;;;;;;;23.50;85.87;153563.11;1773264;79;21683;-65
2022/09/18 06:25:42;;;;;;;4.30;1.30;;;;;;;23.52;85.72;153568.34;1776147;79;21887;-65
2022/09/18 06:28:09;;;;;;;3.20;1.00;;;;;;;23.63;84.92;153595.83;1776057;79;21072;-66
2022/09/18 06:30:36;;;;;;;6.47;1.45;;;;;;;23.85;84.16;153652.14;1775479;79;21040;-65
2022/09/18 06:33:08;;;;;;;4.70;0.90;;;;;;;24.15;82.88;153728.11;1771833;80;21058;-65
2022/09/18 06:35:41;;;;;;;4.22;1.20;;;;;;;24.61;81.49;153844.67;1772383;80;21491;-65
2022/09/18 06:38:08;;;;;;;3.85;1.12;;;;;;;25.46;77.83;154059.58;1779411;79;22074;-65
2022/09/18 06:40:49;;;;;;;2.75;1.02;;;;;;;25.82;73.82;154151.33;1770742;79;21085;-65
2022/09/18 06:43:24;;;;;;;3.98;1.22;;;;;;;25.87;73.10;154163.14;1771349;80;20995;-65
2022/09/18 06:46:10;;;;;;;2.62;1.07;;;;;;;25.92;72.62;154176.23;1774739;79;21068;-59
2022/09/18 06:48:39;;;;;;;3.02;1.00;;;;;;;26.05;71.26;154207.72;1779977;79;20990;-65
2022/09/18 06:51:08;;;;;;;2.35;0.95;;;;;;;26.10;70.37;154220.81;1778373;79;21871;-66
2022/09/18 06:53:37;;;;;;;2.47;1.10;;;;;;;25.98;70.34;154192.00;1772902;79;20980;-66
2022/09/18 06:56:04;;;;;;;5.53;1.27;;;;;;;25.84;70.44;154155.28;1770960;79;21121;-65
2022/09/18 06:58:33;;;;;;;5.65;1.02;;;;;;;25.64;70.82;154105.47;1770843;79;21547;-66
2022/09/18 07:00:59;;;;;;;2.25;1.02;;;;;;;25.47;70.78;154062.25;1774500;79;21096;-65
2022/09/18 07:03:28;;;;;;;5.60;1.07;;;;;;;25.31;70.93;154021.53;1771873;80;22101;-59
2022/09/18 07:06:03;;;;;;;;;;;;;;;25.11;71.07;153971.80;1772492;79;21044;-66
2022/09/18 07:08:35;;;;;;;3.60;1.00;;;;;;;24.95;72.09;153929.86;1772046;79;20507;-66
2022/09/18 07:11:04;;;;;;;3.58;1.17;;;;;;;24.86;73.05;153908.88;1771719;79;21519;-65
2022/09/18 07:13:32;;;;;;;4.37;1.30;;;;;;;24.85;73.14;153904.97;1775134;79;20938;-59
2022/09/18 07:15:58;;;;;;;5.37;2.33;;;;;;;24.83;72.76;153899.73;1770959;79;21456;-60
2022/09/18 07:18:26;;;;;;;4.25;1.45;;;;;;;24.77;73.03;153884.03;1771695;80;21080;-60
2022/09/18 07:20:53;;;;;;;4.40;1.22;;;;;;;24.72;73.29;153873.47;1777971;79;21053;-60
2022/09/18 07:23:22;;;;;;;2.60;1.10;;;;;;;24.72;73.62;153873.47;1778583;79;21021;-60
2022/09/18 07:25:51;;;;;;;5.35;1.60;;;;;;;24.77;73.51;153884.03;1775622;79;21061;-60
2022/09/18 07:28:17;;;;;;;4.45;1.30;;;;;;;24.84;73.80;153902.36;1771067;79;21197;-66
2022/09/18 07:30:46;;;;;;;3.45;1.20;;;;;;;24.91;73.69;153920.67;1774361;79;21017;-66
2022/09/18 07:33:15;;;;;;;4.42;1.17;;;;;;;24.98;73.56;153939.05;1748439;80;20953;-66
2022/09/18 07:35:44;;;;;;;2.42;1.30;;;;;;;25.06;72.47;153958.66;1772347;80;21040;-63
2022/09/18 07:38:12;;;;;;;1.62;1.10;;;;;;;25.06;71.32;153958.66;1776064;79;21090;-66
2022/09/18 07:40:53;;;;;;;2.92;1.22;;;;;;;25.06;70.58;153958.66;1772620;79;21865;-66
2022/09/18 07:43:22;;;;;;;2.47;1.00;;;;;;;25.11;70.27;153971.80;1776358;79;21032;-66
2022/09/18 07:45:50;;;;;;;2.92;1.50;;;;;;;25.13;70.42;153977.03;1775419;79;21129;-67
2022/09/18 07:48:17;;;;;;;5.37;1.20;;;;;;;25.13;70.11;153975.69;1782767;79;20989;-66
2022/09/18 07:50:46;;;;;;;5.83;1.35;;;;;;;25.07;69.88;153961.28;1772950;79;21038;-66
2022/09/18 07:53:14;;;;;;;6.05;1.50;;;;;;;24.97;70.02;153935.09;1778615;79;21097;-66
2022/09/18 07:55:45;;;;;;;2.58;1.40;;;;;;;24.91;70.06;153919.39;1776997;79;21033;-66
2022/09/18 07:58:12;;;;;;;2.62;1.45;;;;;;;24.89;70.45;153915.44;1771832;79;21002;-67
2022/09/18 08:01:01;;;;;;;3.08;1.40;;;;;;;24.97;69.56;153935.09;1780084;79;21073;-65
2022/09/18 08:03:29;;;;;;;3.72;1.27;;;;;;;24.95;69.05;153929.86;1772799;80;21088;-66
2022/09/18 08:06:09;;;;;;;4.22;1.70;;;;;;;24.83;69.29;153901.03;1773224;80;21534;-65
2022/09/18 08:08:36;;;;;;;7.12;1.60;;;;;;;24.69;70.01;153864.33;1776866;79;21056;-65
2022/09/18 08:11:05;;;;;;;4.47;1.57;;;;;;;24.61;70.44;153845.95;1763196;79;21042;-65
2022/09/18 08:13:37;;;;;;;6.30;1.57;;;;;;;24.59;71.07;153840.72;1768397;80;21058;-66
2022/09/18 08:16:05;;;;;;;7.08;1.70;;;;;;;24.62;70.59;153847.30;1770572;79;21042;-65
2022/09/18 08:18:37;;;;;;;2.15;1.37;;;;;;;24.63;70.24;153849.91;1732513;80;21492;-66
2022/09/18 08:21:14;;;;;;;7.80;1.70;;;;;;;24.67;69.99;153859.09;1769613;80;20938;-66
2022/09/18 08:23:43;;;;;;;2.92;1.80;;;;;;;24.73;69.46;153876.08;1776334;79;21060;-66
2022/09/18 08:26:10;;;;;;;6.80;1.72;;;;;;;24.74;69.84;153878.70;1772359;79;21076;-66
2022/09/18 08:28:37;;;;;;;5.67;2.20;;;;;;;24.85;69.47;153906.25;1783265;79;21013;-66
2022/09/18 08:31:05;;;;;;;12.90;2.60;;;;;;;24.94;68.31;153928.53;1779618;79;21670;-66
2022/09/18 08:33:32;;;;;;;9.80;3.60;;;;;;;25.02;67.76;153949.52;1776018;79;21007;-67
2022/09/18 08:36:02;;;;;;;15.93;9.43;;;;;;;25.08;68.00;153963.89;1771254;80;21740;-66
2022/09/18 08:38:35;;;;;;;11.83;5.85;;;;;;;25.18;67.48;153988.78;1771270;79;21113;-67
2022/09/18 08:41:43;;;;;;;10.23;6.50;;;;;;;25.23;66.93;154001.94;1779879;78;21029;-66
2022/09/18 08:44:29;;;;;;;14.15;4.12;;;;;;;25.26;66.69;154008.45;1802478;79;21213;-65
2022/09/18 08:47:19;;;;;;;4.65;2.30;;;;;;;25.29;66.29;154016.30;1787823;79;21092;-65
2022/09/18 08:49:52;;;;;;;7.08;2.37;;;;;;;25.26;65.73;154008.45;1792787;79;21051;-65
2022/09/18 08:52:23;;;;;;;5.58;2.37;;;;;;;25.20;65.50;153992.75;1791038;79;21050;-65
2022/09/18 08:55:21;;;;;;;4.78;2.10;;;;;;;25.13;65.35;153977.03;1783839;79;21032;-65
2022/09/18 08:58:02;;;;;;;5.28;2.02;;;;;;;25.10;65.00;153969.17;1778700;79;21116;-66
2022/09/18 09:00:36;;;;;;;3.00;1.90;;;;;;;25.03;64.51;153952.14;1789973;79;21454;-66
2022/09/18 09:03:44;;;;;;;2.92;2.10;;;;;;;25.06;63.82;153957.38;1786561;79;21753;-67
2022/09/18 09:06:43;;;;;;;;;;;;;;;25.03;63.57;153950.80;1793166;79;21024;-65
2022/09/18 09:09:42;;;;;;;5.78;2.35;;;;;;;24.99;63.33;153940.33;1790039;79;20174;-65
2022/09/18 09:12:52;;;;;;;3.60;2.42;;;;;;;24.95;62.42;153929.86;1785780;79;21193;-65
2022/09/18 09:15:47;;;;;;;3.12;2.15;;;;;;;24.93;61.77;153925.91;1772903;79;21454;-67
2022/09/18 09:18:40;;;;;;;3.77;2.90;;;;;;;24.99;60.80;153941.67;1792990;79;21025;-66
2022/09/18 09:21:24;;;;;;;5.40;2.72;;;;;;;25.02;58.16;153948.19;1790695;79;21011;-66
2022/09/18 09:24:30;;;;;;;5.35;3.05;;;;;;;24.97;57.26;153936.38;1790713;79;21029;-64
2022/09/18 09:27:28;;;;;;;5.62;3.55;;;;;;;24.98;56.25;153937.72;1783571;79;21237;-65
2022/09/18 09:30:14;;;;;;;6.65;4.58;;;;;;;25.06;56.14;153958.66;1666004;84;21041;-66
2022/09/18 09:33:23;;;;;;;7.17;4.83;;;;;;;25.18;55.70;153988.78;1795118;79;21653;-65
2022/09/18 09:36:02;;;;;;;7.10;4.87;;;;;;;25.32;55.60;154024.20;1754381;79;21243;-66
2022/09/18 09:38:51;;;;;;;7.75;5.47;;;;;;;25.43;53.97;154051.72;1748911;80;21057;-65
2022/09/18 09:41:27;;;;;;;7.10;5.85;;;;;;;25.40;53.92;154045.16;1778665;79;22055;-65
2022/09/18 09:44:05;;;;;;;7.05;5.90;;;;;;;25.41;54.36;154046.44;1771171;81;21026;-65
2022/09/18 09:47:22;;;;;;;9.35;6.53;;;;;;;25.45;53.61;154056.95;1771636;80;21072;-65
2022/09/18 09:49:58;;;;;;;9.63;6.67;;;;;;;25.46;54.07;154060.86;1771823;80;21050;-66
2022/09/18 09:52:27;;;;;;;12.73;8.98;;;;;;;25.46;54.14;154060.86;1771861;80;21092;-65
2022/09/18 09:54:59;;;;;;;11.28;7.70;;;;;;;25.45;54.28;154058.25;1770584;80;21609;-65
2022/09/18 09:57:49;;;;;;;9.23;7.75;;;;;;;25.49;54.49;154067.48;1752492;80;21564;-66
2022/09/18 10:00:19;;;;;;;8.33;6.80;;;;;;;25.50;54.26;154068.77;1772159;80;20999;-66
2022/09/18 10:03:25;;;;;;;9.13;6.47;;;;;;;25.51;53.78;154072.72;1773341;79;21017;-66
2022/09/18 10:06:34;;;;;;;16.00;9.33;;;;;;;25.48;52.83;154063.53;1774800;79;20998;-65
2022/09/18 10:09:12;;;;;;;10.98;9.28;;;;;;;25.41;54.23;154047.77;1780009;79;21214;-59
2022/09/18 10:11:41;;;;;;;13.72;8.70;;;;;;;25.32;55.54;154025.48;1771820;80;21468;-59
2022/09/18 10:14:16;;;;;;;15.00;9.08;;;;;;;25.26;55.61;154009.78;1774529;79;21061;-59
2022/09/18 10:16:49;;;;;;;13.22;7.92;;;;;;;25.27;55.57;154012.41;1772448;80;22089;-59
2022/09/18 10:19:19;;;;;;;8.05;7.25;;;;;;;25.27;54.59;154011.06;1772195;80;21508;-60
2022/09/18 10:21:47;;;;;;;10.18;8.75;;;;;;;25.23;53.97;154001.94;1747458;81;21473;-59
2022/09/18 10:24:43;;;;;;;11.65;9.05;;;;;;;25.12;54.68;153973.08;1772407;80;21041;-59
2022/09/18 10:27:12;;;;;;;11.10;8.30;;;;;;;24.94;55.58;153927.25;1774404;79;21048;-59
2022/09/18 10:29:39;;;;;;;9.35;7.62;;;;;;;24.83;56.70;153901.03;1776281;79;21011;-59
2022/09/18 10:32:10;;;;;;;10.48;6.53;;;;;;;24.82;55.54;153898.41;1775424;79;21050;-59
2022/09/18 10:34:47;;;;;;;8.00;5.37;;;;;;;24.75;55.30;153880.09;1780559;79;21881;-59
2022/09/18 10:37:33;;;;;;;7.40;4.95;;;;;;;24.76;54.92;153882.70;1774999;79;20962;-59
2022/09/18 10:40:06;;;;;;;11.68;5.42;;;;;;;24.79;54.30;153890.56;1778878;79;21023;-65
2022/09/18 10:42:35;;;;;;;6.35;5.17;;;;;;;24.73;54.65;153874.80;1775398;79;21027;-65
2022/09/18 10:45:32;;;;;;;6.20;4.75;;;;;;;24.75;54.76;153880.09;1770592;80;21124;-64
2022/09/18 10:48:19;;;;;;;6.37;4.60;;;;;;;24.74;54.22;153878.70;1770689;80;21771;-60
2022/09/18 10:51:01;;;;;;;6.03;4.97;;;;;;;24.70;53.81;153866.95;1771753;80;21021;-59
2022/09/18 10:53:41;;;;;;;7.03;6.33;;;;;;;24.61;53.98;153845.95;1772441;79;21047;-59
2022/09/18 10:56:18;;;;;;;8.83;6.83;;;;;;;24.53;54.36;153825.03;1756194;81;21422;-61
2022/09/18 10:58:46;;;;;;;10.65;7.33;;;;;;;24.44;55.01;153802.75;1772209;80;21032;-60
2022/09/18 11:01:12;;;;;;;8.25;7.42;;;;;;;24.39;55.68;153788.34;1788707;79;21220;-65
2022/09/18 11:04:02;;;;;;;12.37;8.40;;;;;;;24.42;56.22;153796.19;1781251;79;21023;-67
2022/09/18 11:06:34;;;;;;;12.70;8.33;;;;;;;24.43;56.55;153798.86;1780340;79;21608;-67
2022/09/18 11:09:09;;;;;;;10.60;9.00;;;;;;;24.44;56.88;153802.75;1775847;79;21027;-67
2022/09/18 11:11:41;;;;;;;9.95;8.83;;;;;;;24.40;57.22;153792.28;1773058;80;20988;-66
2022/09/18 11:14:21;;;;;;;9.78;8.50;;;;;;;24.34;57.52;153775.25;1771613;80;21112;-66
2022/09/18 11:16:53;;;;;;;12.65;8.65;;;;;;;24.28;57.77;153762.17;1771608;79;21029;-67
2022/09/18 11:19:37;;;;;;;7.42;6.22;;;;;;;24.19;58.23;153738.58;1775748;79;20831;-66
2022/09/18 11:22:31;;;;;;;6.80;3.30;;;;;;;24.16;57.73;153732.06;1772366;79;21483;-66
2022/09/18 11:25:25;;;;;;;3.45;2.15;;;;;;;24.09;55.89;153713.69;1771712;80;22247;-67
2022/09/18 11:27:58;;;;;;;3.87;2.17;;;;;;;23.96;53.86;153680.92;1771339;80;21535;-66
2022/09/18 11:30:31;;;;;;;1.72;1.50;;;;;;;23.94;51.86;153675.69;1771612;80;21088;-66
2022/09/18 11:33:13;;;;;;;2.45;1.20;;;;;;;23.93;50.95;153673.08;1779452;79;21089;-68
2022/09/18 11:35:45;;;;;;;1.90;1.00;;;;;;;23.92;49.11;153669.17;1770890;79;21036;-65
2022/09/18 11:38:15;;;;;;;1.30;0.93;;;;;;;23.90;46.97;153665.22;1772594;80;21041;-66
2022/09/18 11:40:47;;;;;;;1.47;0.90;;;;;;;23.90;45.98;153665.22;1772713;79;21667;-66
2022/09/18 11:43:21;;;;;;;4.20;0.75;;;;;;;23.88;45.82;153659.98;1778096;79;21474;-67
2022/09/18 11:46:08;;;;;;;;;;;;;;;23.87;44.80;153657.38;1773196;80;21026;-66
2022/09/18 11:48:45;;;;;;;5.28;1.30;;;;;;;23.86;43.89;153656.03;1770511;80;20227;-67
2022/09/18 11:51:21;;;;;;;2.35;0.80;;;;;;;23.84;43.17;153650.81;1774337;79;21550;-67